createdAt,value
2017-03-17T00:01:03.088Z,961.59
2017-03-17T00:02:13.344Z,961.64
2017-03-17T00:03:23.598Z,961.46
2017-03-17T00:04:33.855Z,961.48
2017-03-17T00:05:44.113Z,961.5
2017-03-17T00:06:54.405Z,961.38
2017-03-17T00:08:04.035Z,961.25
2017-03-17T00:09:14.295Z,961.24
2017-03-17T00:10:24.549Z,961.23
2017-03-17T00:11:34.179Z,961.28
2017-03-17T00:12:44.126Z,961.43
2017-03-17T00:13:54.060Z,961.44
2017-03-17T00:15:04.323Z,961.45
2017-03-17T00:16:14.273Z,961.32
2017-03-17T00:17:24.214Z,961.3
2017-03-17T00:18:34.148Z,961.09
2017-03-17T00:19:44.403Z,960.95
2017-03-17T00:20:54.660Z,960.98
2017-03-17T00:22:04.598Z,960.97
2017-03-17T00:23:14.863Z,960.91
2017-03-17T00:24:24.806Z,960.86
2017-03-17T00:25:34.753Z,960.86
2017-03-17T00:26:44.379Z,960.85
2017-03-17T00:27:54.636Z,960.83
2017-03-17T00:29:04.888Z,960.79
2017-03-17T00:30:15.142Z,960.71
2017-03-17T00:31:25.395Z,960.55
2017-03-17T00:32:35.332Z,960.62
2017-03-17T00:33:45.588Z,960.6
2017-03-17T00:34:55.842Z,960.59
2017-03-17T00:36:05.467Z,960.66
2017-03-17T00:37:15.432Z,960.61
2017-03-17T00:38:25.692Z,960.66
2017-03-17T00:39:35.957Z,960.56
2017-03-17T00:40:46.211Z,960.54
2017-03-17T00:41:56.154Z,960.58
2017-03-17T00:43:06.404Z,960.51
2017-03-17T00:44:16.346Z,960.56
2017-03-17T00:45:26.607Z,960.47
2017-03-17T00:46:36.864Z,960.51
2017-03-17T00:47:46.797Z,960.52
2017-03-17T00:48:57.052Z,960.48
2017-03-17T00:50:07.309Z,960.51
2017-03-17T00:51:17.561Z,960.6
2017-03-17T00:52:27.812Z,960.58
2017-03-17T00:53:37.757Z,960.63
2017-03-17T00:54:48.010Z,960.7
2017-03-17T00:55:58.261Z,960.71
2017-03-17T00:57:08.202Z,960.79
2017-03-17T00:58:18.146Z,960.75
2017-03-17T00:59:28.515Z,960.71
2017-03-17T01:00:38.455Z,960.67
2017-03-17T01:01:48.116Z,960.71
2017-03-17T01:02:58.055Z,960.75
2017-03-17T01:04:08.308Z,960.69
2017-03-17T01:05:18.591Z,960.8
2017-03-17T01:06:28.543Z,960.75
2017-03-17T01:07:38.797Z,960.82
2017-03-17T01:08:49.061Z,960.82
2017-03-17T01:09:59.004Z,960.8
2017-03-17T01:11:09.255Z,960.76
2017-03-17T01:12:19.517Z,960.7
2017-03-17T01:13:29.464Z,960.69
2017-03-17T01:14:39.405Z,960.66
2017-03-17T01:15:49.661Z,960.66
2017-03-17T01:16:59.915Z,960.75
2017-03-17T01:18:09.542Z,960.67
2017-03-17T01:19:19.483Z,960.75
2017-03-17T01:20:29.747Z,960.79
2017-03-17T01:21:39.691Z,960.7
2017-03-17T01:22:49.949Z,960.81
2017-03-17T01:24:00.204Z,960.7
2017-03-17T01:25:10.460Z,960.76
2017-03-17T01:26:20.402Z,960.68
2017-03-17T01:27:30.660Z,960.63
2017-03-17T01:28:40.608Z,960.65
2017-03-17T01:29:50.871Z,960.61
2017-03-17T01:31:01.132Z,960.66
2017-03-17T01:32:11.075Z,960.58
2017-03-17T01:33:21.021Z,960.51
2017-03-17T01:34:31.284Z,960.54
2017-03-17T01:35:41.542Z,960.56
2017-03-17T01:36:51.797Z,960.51
2017-03-17T01:38:02.060Z,960.54
2017-03-17T01:39:12.316Z,960.53
2017-03-17T01:40:22.261Z,960.48
2017-03-17T01:41:32.198Z,960.52
2017-03-17T01:42:42.451Z,960.5
2017-03-17T01:43:51.765Z,960.51
2017-03-17T01:45:01.710Z,960.55
2017-03-17T01:46:11.661Z,960.53
2017-03-17T01:47:21.918Z,960.5
2017-03-17T01:48:32.173Z,960.47
2017-03-17T01:49:42.430Z,960.48
2017-03-17T01:50:52.681Z,960.51
2017-03-17T01:52:02.934Z,960.49
2017-03-17T01:53:13.184Z,960.44
2017-03-17T01:54:23.439Z,960.46
2017-03-17T01:55:33.699Z,960.49
2017-03-17T01:56:43.331Z,960.52
2017-03-17T01:57:52.976Z,960.51
2017-03-17T01:59:03.231Z,960.45
2017-03-17T02:00:13.487Z,960.45
2017-03-17T02:01:23.746Z,960.39
2017-03-17T02:02:33.686Z,960.36
2017-03-17T02:03:43.943Z,960.36
2017-03-17T02:04:53.879Z,960.3
2017-03-17T02:06:03.820Z,960.23
2017-03-17T02:07:14.079Z,960.21
2017-03-17T02:08:24.362Z,960.17
2017-03-17T02:09:34.627Z,960.08
2017-03-17T02:10:44.886Z,960.11
2017-03-17T02:11:54.828Z,960.02
2017-03-17T02:13:05.084Z,960.06
2017-03-17T02:14:15.360Z,959.92
2017-03-17T02:15:25.304Z,959.92
2017-03-17T02:16:35.557Z,959.87
2017-03-17T02:17:45.807Z,959.82
2017-03-17T02:18:56.064Z,959.73
2017-03-17T02:20:06.325Z,959.74
2017-03-17T02:21:15.956Z,959.67
2017-03-17T02:22:26.210Z,959.62
2017-03-17T02:23:36.464Z,959.58
2017-03-17T02:24:46.714Z,959.49
2017-03-17T02:25:56.660Z,959.58
2017-03-17T02:27:06.597Z,959.54
2017-03-17T02:28:16.848Z,959.55
2017-03-17T02:29:27.104Z,959.56
2017-03-17T02:30:37.069Z,959.61
2017-03-17T02:31:46.699Z,959.69
2017-03-17T02:32:58.322Z,959.73
2017-03-17T02:34:08.262Z,959.76
2017-03-17T02:35:18.522Z,959.78
2017-03-17T02:36:28.465Z,959.8
2017-03-17T02:37:38.729Z,959.8
2017-03-17T02:38:48.992Z,959.82
2017-03-17T02:39:59.248Z,959.77
2017-03-17T02:41:09.192Z,959.8
2017-03-17T02:42:19.455Z,959.82
2017-03-17T02:43:29.440Z,959.87
2017-03-17T02:44:39.385Z,959.92
2017-03-17T02:45:49.643Z,960.02
2017-03-17T02:46:59.895Z,960.03
2017-03-17T02:48:10.144Z,960.01
2017-03-17T02:49:20.395Z,960.04
2017-03-17T02:50:30.653Z,960
2017-03-17T02:51:40.919Z,960.05
2017-03-17T02:52:51.178Z,960.05
2017-03-17T02:54:01.433Z,960.05
2017-03-17T02:55:11.690Z,960.02
2017-03-17T02:56:21.632Z,959.97
2017-03-17T02:57:31.889Z,959.95
2017-03-17T02:58:42.161Z,959.93
2017-03-17T02:59:51.796Z,959.89
2017-03-17T03:01:01.741Z,959.8
2017-03-17T03:02:11.986Z,959.83
2017-03-17T03:03:21.923Z,959.86
2017-03-17T03:04:32.185Z,959.86
2017-03-17T03:05:42.126Z,959.79
2017-03-17T03:06:52.381Z,959.81
2017-03-17T03:08:02.665Z,959.84
2017-03-17T03:09:12.299Z,959.8
2017-03-17T03:10:22.560Z,959.81
2017-03-17T03:11:32.818Z,959.73
2017-03-17T03:12:42.758Z,959.65
2017-03-17T03:13:52.697Z,959.65
2017-03-17T03:15:02.954Z,959.61
2017-03-17T03:16:12.899Z,959.61
2017-03-17T03:17:23.158Z,959.62
2017-03-17T03:18:33.415Z,959.65
2017-03-17T03:19:43.616Z,959.62
2017-03-17T03:20:53.559Z,959.62
2017-03-17T03:22:03.500Z,959.64
2017-03-17T03:23:13.754Z,959.57
2017-03-17T03:24:24.013Z,959.51
2017-03-17T03:25:34.293Z,959.47
2017-03-17T03:26:44.237Z,959.4
2017-03-17T03:27:54.183Z,959.31
2017-03-17T03:29:04.455Z,959.3
2017-03-17T03:30:14.394Z,959.29
2017-03-17T03:31:24.338Z,959.22
2017-03-17T03:32:34.592Z,959.15
2017-03-17T03:33:44.857Z,959.07
2017-03-17T03:34:55.117Z,959.02
2017-03-17T03:36:05.369Z,958.94
2017-03-17T03:37:15.306Z,958.94
2017-03-17T03:38:25.559Z,958.85
2017-03-17T03:39:35.823Z,958.77
2017-03-17T03:40:46.076Z,958.75
2017-03-17T03:41:56.334Z,958.68
2017-03-17T03:43:06.593Z,958.7
2017-03-17T03:44:16.854Z,958.6
2017-03-17T03:45:27.116Z,958.57
2017-03-17T03:46:37.057Z,958.55
2017-03-17T03:47:47.000Z,958.58
2017-03-17T03:48:57.267Z,958.55
2017-03-17T03:50:07.530Z,958.52
2017-03-17T03:51:17.151Z,958.57
2017-03-17T03:52:27.398Z,958.55
2017-03-17T03:53:37.658Z,958.54
2017-03-17T03:54:47.599Z,958.52
2017-03-17T03:55:57.868Z,958.52
2017-03-17T03:57:08.119Z,958.51
2017-03-17T03:58:18.378Z,958.55
2017-03-17T03:59:28.651Z,958.5
2017-03-17T04:00:38.907Z,958.5
2017-03-17T04:01:49.162Z,958.53
2017-03-17T04:02:59.416Z,958.55
2017-03-17T04:04:09.681Z,958.55
2017-03-17T04:05:19.628Z,958.5
2017-03-17T04:07:45.918Z,958.54
2017-03-17T04:08:56.175Z,958.49
2017-03-17T04:10:06.438Z,958.53
2017-03-17T04:11:16.383Z,958.52
2017-03-17T04:13:39.365Z,958.44
2017-03-17T04:14:49.620Z,958.42
2017-03-17T04:15:59.574Z,958.41
2017-03-17T04:17:09.829Z,958.41
2017-03-17T04:18:20.181Z,958.36
2017-03-17T04:19:30.437Z,958.3
2017-03-17T04:20:40.378Z,958.3
2017-03-17T04:21:50.323Z,958.37
2017-03-17T04:23:00.283Z,958.3
2017-03-17T04:24:10.311Z,958.32
2017-03-17T04:25:20.263Z,958.36
2017-03-17T04:26:30.515Z,958.28
2017-03-17T04:27:40.453Z,958.29
2017-03-17T04:28:50.393Z,958.25
2017-03-17T04:30:00.899Z,958.25
2017-03-17T04:31:10.843Z,958.25
2017-03-17T04:32:20.784Z,958.21
2017-03-17T04:33:30.718Z,958.22
2017-03-17T04:34:40.974Z,958.21
2017-03-17T04:35:51.321Z,958.22
2017-03-17T04:37:01.576Z,958.25
2017-03-17T04:38:11.518Z,958.23
2017-03-17T04:39:21.783Z,958.18
2017-03-17T04:40:32.033Z,958.23
2017-03-17T04:41:42.415Z,958.38
2017-03-17T04:42:52.669Z,958.13
2017-03-17T04:44:02.620Z,958.17
2017-03-17T04:45:12.570Z,958.11
2017-03-17T04:46:22.827Z,958.17
2017-03-17T04:47:32.869Z,958.1
2017-03-17T04:48:43.133Z,958.06
2017-03-17T04:49:53.399Z,958.01
2017-03-17T04:51:03.659Z,957.99
2017-03-17T04:52:13.921Z,957.99
2017-03-17T04:53:24.279Z,957.94
2017-03-17T04:54:34.222Z,957.97
2017-03-17T04:55:44.164Z,957.89
2017-03-17T04:56:54.418Z,957.83
2017-03-17T04:58:04.672Z,957.91
2017-03-17T04:59:14.906Z,957.84
2017-03-17T05:00:25.188Z,957.76
2017-03-17T05:01:35.440Z,957.83
2017-03-17T05:02:45.382Z,957.82
2017-03-17T05:03:55.645Z,957.79
2017-03-17T05:05:06.008Z,957.77
2017-03-17T05:06:16.258Z,957.75
2017-03-17T05:07:26.507Z,957.82
2017-03-17T05:08:36.449Z,957.86
2017-03-17T05:09:46.696Z,957.8
2017-03-17T05:10:59.053Z,957.81
2017-03-17T05:12:09.305Z,957.78
2017-03-17T05:13:19.560Z,957.77
2017-03-17T05:14:29.515Z,957.75
2017-03-17T05:15:39.773Z,957.73
2017-03-17T05:16:50.066Z,957.68
2017-03-17T05:18:00.320Z,957.79
2017-03-17T05:19:10.568Z,957.7
2017-03-17T05:20:20.505Z,957.7
2017-03-17T05:21:30.766Z,957.66
2017-03-17T05:22:41.118Z,957.68
2017-03-17T05:23:51.058Z,957.66
2017-03-17T05:25:01.321Z,957.71
2017-03-17T05:26:11.268Z,957.6
2017-03-17T05:27:21.518Z,957.63
2017-03-17T05:28:31.558Z,957.65
2017-03-17T05:29:41.507Z,957.63
2017-03-17T05:30:51.771Z,957.57
2017-03-17T05:32:02.025Z,957.59
2017-03-17T05:33:12.274Z,957.55
2017-03-17T05:34:22.317Z,957.57
2017-03-17T05:35:32.263Z,957.55
2017-03-17T05:36:42.202Z,957.56
2017-03-17T05:37:52.139Z,957.5
2017-03-17T05:39:02.394Z,957.5
2017-03-17T05:40:12.436Z,957.46
2017-03-17T05:41:22.399Z,957.46
2017-03-17T05:42:32.654Z,957.51
2017-03-17T05:43:42.928Z,957.45
2017-03-17T05:44:53.195Z,957.47
2017-03-17T05:46:03.242Z,957.49
2017-03-17T05:47:13.491Z,957.48
2017-03-17T05:48:23.754Z,957.4
2017-03-17T05:49:34.001Z,957.35
2017-03-17T05:50:44.259Z,957.45
2017-03-17T05:51:54.624Z,957.42
2017-03-17T05:53:04.877Z,957.41
2017-03-17T05:54:15.142Z,957.36
2017-03-17T05:55:24.774Z,957.37
2017-03-17T05:56:35.029Z,957.36
2017-03-17T05:57:45.380Z,957.41
2017-03-17T05:58:55.646Z,957.41
2017-03-17T06:00:05.909Z,957.32
2017-03-17T06:01:16.157Z,957.33
2017-03-17T06:02:26.424Z,957.38
2017-03-17T06:03:36.929Z,957.43
2017-03-17T06:04:47.190Z,957.36
2017-03-17T06:05:57.451Z,957.33
2017-03-17T06:07:07.393Z,957.37
2017-03-17T06:08:17.328Z,957.37
2017-03-17T06:09:27.680Z,957.49
2017-03-17T06:10:37.621Z,957.4
2017-03-17T06:11:47.559Z,957.49
2017-03-17T06:12:57.815Z,957.41
2017-03-17T06:14:08.074Z,957.41
2017-03-17T06:15:18.132Z,957.39
2017-03-17T06:16:28.068Z,957.3
2017-03-17T06:17:38.014Z,957.33
2017-03-17T06:18:47.963Z,957.32
2017-03-17T06:19:58.227Z,957.25
2017-03-17T06:21:12.327Z,957.28
2017-03-17T06:22:22.580Z,957.33
2017-03-17T06:23:32.221Z,957.28
2017-03-17T06:24:42.168Z,957.33
2017-03-17T06:25:52.424Z,957.32
2017-03-17T06:27:02.515Z,957.39
2017-03-17T06:28:12.767Z,957.36
2017-03-17T06:29:22.702Z,957.29
2017-03-17T06:30:32.954Z,957.4
2017-03-17T06:31:43.211Z,957.26
2017-03-17T06:32:53.564Z,957.29
2017-03-17T06:34:03.820Z,957.31
2017-03-17T06:35:14.079Z,957.26
2017-03-17T06:36:23.701Z,957.24
2017-03-17T06:37:33.962Z,957.25
2017-03-17T06:38:44.369Z,957.28
2017-03-17T06:39:54.634Z,957.27
2017-03-17T06:41:04.891Z,957.28
2017-03-17T06:42:14.830Z,957.24
2017-03-17T06:43:24.767Z,957.24
2017-03-17T06:44:34.813Z,957.26
2017-03-17T06:45:45.072Z,957.26
2017-03-17T06:46:55.327Z,957.28
2017-03-17T06:48:05.580Z,957.26
2017-03-17T06:49:15.209Z,957.28
2017-03-17T06:50:25.256Z,957.18
2017-03-17T06:51:34.882Z,957.17
2017-03-17T06:52:45.145Z,957.13
2017-03-17T06:53:55.090Z,957.17
2017-03-17T06:55:05.357Z,957.16
2017-03-17T06:56:15.707Z,957.07
2017-03-17T06:57:25.669Z,957.06
2017-03-17T06:58:35.615Z,957.04
2017-03-17T06:59:45.874Z,957.04
2017-03-17T07:00:56.162Z,956.99
2017-03-17T07:02:06.205Z,956.97
2017-03-17T07:03:16.154Z,957.01
2017-03-17T07:04:26.412Z,957
2017-03-17T07:05:36.672Z,956.99
2017-03-17T07:06:46.927Z,956.97
2017-03-17T07:07:57.529Z,956.95
2017-03-17T07:09:07.781Z,957.03
2017-03-17T07:10:17.728Z,956.91
2017-03-17T07:11:27.977Z,956.93
2017-03-17T07:12:37.933Z,956.92
2017-03-17T07:13:48.300Z,956.91
2017-03-17T07:14:58.555Z,956.87
2017-03-17T07:16:08.810Z,956.9
2017-03-17T07:17:18.745Z,956.85
2017-03-17T07:18:28.685Z,956.95
2017-03-17T07:19:39.190Z,956.89
2017-03-17T07:20:49.448Z,956.92
2017-03-17T07:21:59.386Z,956.78
2017-03-17T07:23:09.641Z,956.77
2017-03-17T07:24:19.906Z,956.81
2017-03-17T07:25:30.261Z,956.71
2017-03-17T07:26:40.528Z,956.66
2017-03-17T07:27:50.781Z,956.66
2017-03-17T07:29:01.081Z,956.65
2017-03-17T07:30:11.338Z,956.61
2017-03-17T07:31:21.394Z,956.55
2017-03-17T07:32:31.659Z,956.61
2017-03-17T07:33:41.924Z,956.65
2017-03-17T07:34:52.197Z,956.55
2017-03-17T07:36:02.456Z,956.57
2017-03-17T07:37:12.497Z,956.56
2017-03-17T07:38:22.748Z,956.53
2017-03-17T07:39:32.703Z,956.54
2017-03-17T07:40:42.957Z,956.56
2017-03-17T07:41:53.215Z,956.47
2017-03-17T07:43:03.571Z,956.51
2017-03-17T07:44:13.836Z,956.39
2017-03-17T07:45:24.097Z,956.43
2017-03-17T07:46:34.394Z,956.42
2017-03-17T07:47:44.339Z,956.4
2017-03-17T07:48:54.397Z,956.42
2017-03-17T07:50:04.648Z,956.44
2017-03-17T07:51:14.585Z,956.33
2017-03-17T07:52:24.841Z,956.37
2017-03-17T07:53:35.099Z,956.31
2017-03-17T07:54:45.456Z,956.31
2017-03-17T07:55:55.409Z,956.24
2017-03-17T07:57:05.344Z,956.27
2017-03-17T07:58:15.597Z,956.24
2017-03-17T07:59:25.866Z,956.26
2017-03-17T08:00:36.223Z,956.22
2017-03-17T08:01:46.163Z,956.16
2017-03-17T08:02:56.412Z,956.13
2017-03-17T08:04:06.672Z,956.12
2017-03-17T08:05:16.936Z,956.07
2017-03-17T08:06:26.978Z,956.07
2017-03-17T08:07:36.918Z,956.04
2017-03-17T08:08:47.178Z,955.94
2017-03-17T08:09:57.443Z,955.96
2017-03-17T08:11:07.696Z,956
2017-03-17T08:12:18.051Z,955.99
2017-03-17T08:13:28.002Z,956.02
2017-03-17T08:14:38.273Z,956.03
2017-03-17T08:15:48.225Z,956.02
2017-03-17T08:16:58.500Z,955.95
2017-03-17T08:18:08.541Z,956.02
2017-03-17T08:19:18.499Z,956
2017-03-17T08:20:28.141Z,956.05
2017-03-17T08:21:38.415Z,956.08
2017-03-17T08:22:48.670Z,956.18
2017-03-17T08:23:58.715Z,956.09
2017-03-17T08:25:08.995Z,956.14
2017-03-17T08:26:19.261Z,956.17
2017-03-17T08:27:29.200Z,956.1
2017-03-17T08:28:39.461Z,956.18
2017-03-17T08:29:49.986Z,956.12
2017-03-17T08:31:00.245Z,956.13
2017-03-17T08:32:10.502Z,956.16
2017-03-17T08:33:20.762Z,956.15
2017-03-17T08:34:30.712Z,956.19
2017-03-17T08:35:41.066Z,956.17
2017-03-17T08:36:51.321Z,956.24
2017-03-17T08:38:01.260Z,956.15
2017-03-17T08:39:11.515Z,956.31
2017-03-17T08:40:21.779Z,956.27
2017-03-17T08:41:31.818Z,956.22
2017-03-17T08:42:41.761Z,956.21
2017-03-17T08:43:51.713Z,956.28
2017-03-17T08:45:01.974Z,956.25
2017-03-17T08:46:12.225Z,956.23
2017-03-17T08:47:22.587Z,956.2
2017-03-17T08:48:32.845Z,956.24
2017-03-17T08:49:43.111Z,956.23
2017-03-17T08:50:53.369Z,956.18
2017-03-17T08:52:03.622Z,956.2
2017-03-17T08:53:13.975Z,956.26
2017-03-17T08:54:23.921Z,956.15
2017-03-17T08:55:34.239Z,956.28
2017-03-17T08:56:44.499Z,956.28
2017-03-17T08:57:54.755Z,956.33
2017-03-17T08:59:04.953Z,956.3
2017-03-17T09:00:15.215Z,956.36
2017-03-17T09:01:25.467Z,956.33
2017-03-17T09:02:35.095Z,956.33
2017-03-17T09:03:45.042Z,956.31
2017-03-17T09:04:55.658Z,956.28
2017-03-17T09:06:05.921Z,956.28
2017-03-17T09:07:15.859Z,956.19
2017-03-17T09:08:26.123Z,956.22
2017-03-17T09:09:36.387Z,956.17
2017-03-17T09:10:48.744Z,956.14
2017-03-17T09:11:59.001Z,956.08
2017-03-17T09:13:09.257Z,956.03
2017-03-17T09:14:19.516Z,956.03
2017-03-17T09:15:29.770Z,955.97
2017-03-17T09:16:40.173Z,956
2017-03-17T09:17:50.454Z,955.9
2017-03-17T09:19:00.728Z,955.95
2017-03-17T09:20:11.022Z,955.89
2017-03-17T09:21:21.304Z,955.91
2017-03-17T09:22:31.244Z,955.85
2017-03-17T09:23:41.190Z,955.82
2017-03-17T09:24:51.832Z,955.83
2017-03-17T09:26:01.480Z,955.73
2017-03-17T09:27:11.416Z,955.73
2017-03-17T09:28:21.359Z,955.76
2017-03-17T09:29:31.308Z,955.8
2017-03-17T09:30:41.626Z,955.8
2017-03-17T09:31:51.879Z,955.76
2017-03-17T09:33:02.145Z,955.7
2017-03-17T09:34:12.407Z,955.62
2017-03-17T09:35:22.668Z,955.61
2017-03-17T09:36:32.605Z,955.6
2017-03-17T09:37:42.238Z,955.51
2017-03-17T09:38:52.504Z,955.46
2017-03-17T09:40:02.757Z,955.5
2017-03-17T09:41:12.386Z,955.4
2017-03-17T09:42:22.640Z,955.43
2017-03-17T09:43:32.580Z,955.34
2017-03-17T09:44:42.517Z,955.37
2017-03-17T09:45:52.810Z,955.37
2017-03-17T09:47:03.072Z,955.39
2017-03-17T09:48:13.328Z,955.37
2017-03-17T09:49:23.599Z,955.41
2017-03-17T09:50:33.863Z,955.36
2017-03-17T09:51:43.808Z,955.37
2017-03-17T09:52:54.069Z,955.36
2017-03-17T09:54:04.333Z,955.32
2017-03-17T09:55:14.623Z,955.3
2017-03-17T09:56:24.874Z,955.36
2017-03-17T09:57:35.135Z,955.29
2017-03-17T09:58:45.391Z,955.38
2017-03-17T09:59:55.333Z,955.34
2017-03-17T10:01:05.278Z,955.34
2017-03-17T10:02:15.537Z,955.41
2017-03-17T10:03:25.490Z,955.41
2017-03-17T10:04:35.745Z,955.33
2017-03-17T10:05:46.027Z,955.29
2017-03-17T10:06:56.280Z,955.2
2017-03-17T10:08:06.538Z,955.22
2017-03-17T10:09:16.481Z,955.24
2017-03-17T10:10:26.743Z,955.13
2017-03-17T10:11:36.686Z,955.17
2017-03-17T10:12:46.955Z,955.16
2017-03-17T10:13:57.221Z,955.06
2017-03-17T10:15:07.168Z,955.07
2017-03-17T10:16:17.420Z,955.07
2017-03-17T10:17:27.362Z,955.06
2017-03-17T10:18:37.301Z,955.03
2017-03-17T10:19:47.561Z,954.99
2017-03-17T10:20:57.823Z,955
2017-03-17T10:22:08.080Z,954.97
2017-03-17T10:23:18.022Z,954.94
2017-03-17T10:24:27.989Z,954.91
2017-03-17T10:25:38.250Z,954.89
2017-03-17T10:26:48.221Z,954.87
2017-03-17T10:27:57.850Z,954.93
2017-03-17T10:29:08.108Z,954.92
2017-03-17T10:30:18.364Z,954.9
2017-03-17T10:31:28.627Z,954.95
2017-03-17T10:32:38.891Z,954.87
2017-03-17T10:33:49.157Z,954.86
2017-03-17T10:34:59.094Z,954.86
2017-03-17T10:36:09.386Z,954.86
2017-03-17T10:37:19.028Z,954.79
2017-03-17T10:38:29.288Z,954.88
2017-03-17T10:39:39.552Z,954.86
2017-03-17T10:40:49.495Z,954.93
2017-03-17T10:41:59.759Z,954.91
2017-03-17T10:43:10.026Z,954.92
2017-03-17T10:44:19.970Z,955.17
2017-03-17T10:45:29.916Z,955
2017-03-17T10:46:39.862Z,955.07
2017-03-17T10:47:50.117Z,954.95
2017-03-17T10:49:00.062Z,955.02
2017-03-17T10:50:10.316Z,954.97
2017-03-17T10:51:20.571Z,954.93
2017-03-17T10:52:30.516Z,954.94
2017-03-17T10:53:40.155Z,954.95
2017-03-17T10:54:50.430Z,955.12
2017-03-17T10:56:00.372Z,955.13
2017-03-17T10:57:10.629Z,955.09
2017-03-17T10:58:20.897Z,955.16
2017-03-17T10:59:31.167Z,955.27
2017-03-17T11:00:41.428Z,955.18
2017-03-17T11:01:51.689Z,955.24
2017-03-17T11:03:01.953Z,955.18
2017-03-17T11:04:11.908Z,955.32
2017-03-17T11:05:22.183Z,955.21
2017-03-17T11:06:32.127Z,955.33
2017-03-17T11:07:41.755Z,955.2
2017-03-17T11:08:51.709Z,955.25
2017-03-17T11:10:01.667Z,955.37
2017-03-17T11:11:11.297Z,955.49
2017-03-17T11:12:21.557Z,955.53
2017-03-17T11:13:31.192Z,955.57
2017-03-17T11:14:41.466Z,955.44
2017-03-17T11:15:51.734Z,955.33
2017-03-17T11:17:01.706Z,955.34
2017-03-17T11:18:11.969Z,955.34
2017-03-17T11:19:22.239Z,955.13
2017-03-17T11:20:32.186Z,955.28
2017-03-17T11:21:42.134Z,955.31
2017-03-17T11:22:51.767Z,955.26
2017-03-17T11:24:02.038Z,955.18
2017-03-17T11:25:11.996Z,955.22
2017-03-17T11:26:22.263Z,955.4
2017-03-17T11:27:32.531Z,955.64
2017-03-17T11:28:42.483Z,955.36
2017-03-17T11:29:52.753Z,955.26
2017-03-17T11:31:02.710Z,955.27
2017-03-17T11:32:12.663Z,955.37
2017-03-17T11:33:22.931Z,955.37
2017-03-17T11:34:33.247Z,955.27
2017-03-17T11:35:43.203Z,955.28
2017-03-17T11:36:53.312Z,955.17
2017-03-17T11:38:03.596Z,955.13
2017-03-17T11:39:13.872Z,955.25
2017-03-17T11:40:24.145Z,955.21
2017-03-17T11:41:34.406Z,955.22
2017-03-17T11:42:44.363Z,955.25
2017-03-17T11:43:54.323Z,955.22
2017-03-17T11:45:04.282Z,955.19
2017-03-17T11:46:14.550Z,955.14
2017-03-17T11:47:24.811Z,955.26
2017-03-17T11:48:34.440Z,955.04
2017-03-17T11:49:44.404Z,955.17
2017-03-17T11:50:54.679Z,955.15
2017-03-17T11:52:04.951Z,955.25
2017-03-17T11:53:15.214Z,955.23
2017-03-17T11:54:25.496Z,955.19
2017-03-17T11:55:35.446Z,955.34
2017-03-17T11:56:45.714Z,955.28
2017-03-17T11:57:55.981Z,955.31
2017-03-17T11:59:06.251Z,955.34
2017-03-17T12:00:16.213Z,955.29
2017-03-17T12:01:26.480Z,955.37
2017-03-17T12:02:36.758Z,955.34
2017-03-17T12:03:46.707Z,955.44
2017-03-17T12:04:56.976Z,955.42
2017-03-17T12:06:07.248Z,955.42
2017-03-17T12:07:17.508Z,955.34
2017-03-17T12:08:27.771Z,955.33
2017-03-17T12:09:38.043Z,955.33
2017-03-17T12:10:47.994Z,955.17
2017-03-17T12:11:57.949Z,955.36
2017-03-17T12:13:08.211Z,955.4
2017-03-17T12:14:18.479Z,955.57
2017-03-17T12:15:28.750Z,955.5
2017-03-17T12:16:38.708Z,955.61
2017-03-17T12:17:48.656Z,955.52
2017-03-17T12:18:58.922Z,955.65
2017-03-17T12:20:09.198Z,955.66
2017-03-17T12:21:19.458Z,955.62
2017-03-17T12:22:29.406Z,955.53
2017-03-17T12:23:39.680Z,955.57
2017-03-17T12:24:49.948Z,955.52
2017-03-17T12:25:59.938Z,955.36
2017-03-17T12:27:09.895Z,955.37
2017-03-17T12:28:20.159Z,955.5
2017-03-17T12:29:30.431Z,955.36
2017-03-17T12:30:40.694Z,955.27
2017-03-17T12:31:50.956Z,955.37
2017-03-17T12:33:01.216Z,955.36
2017-03-17T12:34:11.490Z,955.49
2017-03-17T12:35:21.444Z,955.52
2017-03-17T12:36:31.404Z,955.47
2017-03-17T12:37:41.667Z,955.42
2017-03-17T12:38:51.632Z,955.31
2017-03-17T12:40:01.902Z,955.29
2017-03-17T12:41:11.855Z,955.86
2017-03-17T12:42:21.812Z,955.82
2017-03-17T12:43:31.442Z,955.62
2017-03-17T12:44:41.707Z,955.53
2017-03-17T12:45:51.971Z,955.56
2017-03-17T12:47:02.233Z,955.32
2017-03-17T12:48:12.183Z,955.33
2017-03-17T12:49:22.448Z,955.38
2017-03-17T12:50:32.718Z,955.69
2017-03-17T12:51:42.986Z,955.4
2017-03-17T12:52:53.254Z,955.29
2017-03-17T12:54:03.554Z,954.99
2017-03-17T12:55:13.508Z,955.08
2017-03-17T12:56:23.462Z,955.02
2017-03-17T12:57:33.416Z,955.07
2017-03-17T12:58:43.374Z,955.1
2017-03-17T12:59:53.646Z,955.01
2017-03-17T13:01:03.943Z,955.1
2017-03-17T13:02:14.206Z,955.1
2017-03-17T13:03:24.473Z,955.18
2017-03-17T13:04:34.742Z,955.25
2017-03-17T13:05:44.403Z,955.42
2017-03-17T13:06:54.666Z,955.29
2017-03-17T13:08:04.935Z,955.2
2017-03-17T13:09:14.887Z,955.47
2017-03-17T13:10:25.160Z,955.38
2017-03-17T13:11:35.420Z,955.37
2017-03-17T13:12:45.684Z,955.33
2017-03-17T13:13:55.639Z,955.3
2017-03-17T13:15:05.589Z,955.24
2017-03-17T13:16:15.849Z,955.33
2017-03-17T13:17:25.801Z,955.25
2017-03-17T13:18:36.064Z,955.15
2017-03-17T13:19:46.328Z,955.11
2017-03-17T13:20:56.595Z,955
2017-03-17T13:22:06.556Z,955
2017-03-17T13:23:16.822Z,955.12
2017-03-17T13:24:27.091Z,955.19
2017-03-17T13:25:37.038Z,955.19
2017-03-17T13:26:47.302Z,955.21
2017-03-17T13:27:57.570Z,955.23
2017-03-17T13:29:07.839Z,955.37
2017-03-17T13:30:18.106Z,955.29
2017-03-17T13:31:28.375Z,955.26
2017-03-17T13:32:38.644Z,955.14
2017-03-17T13:33:48.624Z,955.14
2017-03-17T13:34:58.584Z,955.16
2017-03-17T13:36:08.856Z,955.1
2017-03-17T13:37:19.124Z,955.21
2017-03-17T13:38:29.072Z,955.16
2017-03-17T13:39:39.364Z,955.24
2017-03-17T13:40:49.319Z,955.3
2017-03-17T13:41:59.264Z,955.27
2017-03-17T13:43:09.538Z,955.38
2017-03-17T13:44:19.809Z,955.35
2017-03-17T13:45:30.125Z,955.39
2017-03-17T13:46:40.070Z,955.41
2017-03-17T13:47:50.016Z,955.51
2017-03-17T13:49:00.279Z,955.83
2017-03-17T13:50:10.548Z,955.71
2017-03-17T13:51:20.823Z,955.82
2017-03-17T13:52:31.100Z,955.8
2017-03-17T13:53:41.383Z,955.82
2017-03-17T13:54:51.652Z,955.76
2017-03-17T13:56:01.918Z,955.72
2017-03-17T13:57:12.179Z,955.86
2017-03-17T13:58:22.139Z,955.83
2017-03-17T13:59:32.096Z,956.06
2017-03-17T14:00:42.363Z,956.4
2017-03-17T14:01:52.626Z,956.17
2017-03-17T14:03:02.582Z,956.11
2017-03-17T14:04:12.858Z,956.14
2017-03-17T14:05:23.131Z,955.97
2017-03-17T14:06:33.402Z,956.09
2017-03-17T14:07:43.664Z,956.05
2017-03-17T14:08:53.641Z,955.89
2017-03-17T14:10:03.908Z,956.13
2017-03-17T14:11:14.168Z,956.13
2017-03-17T14:12:24.436Z,956.12
2017-03-17T14:13:34.386Z,956.14
2017-03-17T14:14:44.650Z,956.23
2017-03-17T14:15:54.605Z,956.18
2017-03-17T14:17:04.556Z,956.1
2017-03-17T14:18:14.821Z,956.23
2017-03-17T14:19:24.483Z,956.15
2017-03-17T14:20:34.743Z,956.22
2017-03-17T14:21:45.007Z,956.15
2017-03-17T14:22:54.956Z,956.13
2017-03-17T14:24:04.584Z,956.32
2017-03-17T14:25:14.861Z,956.29
2017-03-17T14:26:24.808Z,956.15
2017-03-17T14:27:35.071Z,956.12
2017-03-17T14:28:44.711Z,956.17
2017-03-17T14:29:54.969Z,956.22
2017-03-17T14:31:04.288Z,956.2
2017-03-17T14:32:14.550Z,956.22
2017-03-17T14:33:24.493Z,956.18
2017-03-17T14:34:34.448Z,956.17
2017-03-17T14:35:44.708Z,956.2
2017-03-17T14:36:54.968Z,956.26
2017-03-17T14:38:04.601Z,956.22
2017-03-17T14:39:14.247Z,956.26
2017-03-17T14:40:24.512Z,956.3
2017-03-17T14:41:34.775Z,956.38